Sunday, January 20, 2019, 12:56 AM CST
Back to Local

KMDW, Chicago Midway Airport

Location: Chicago, IL, United States Lat: 41.783
Local Time: 12:56 AM CST ( 6:56 GMT) Lon: -87.75
Time Zone: US/Central Elev: 620 ft

Show me the last for .
Show Decoded

2019-01-19 23:53 METAR KMDW 200553Z 36011G19KT 3SM -SN BR FEW018 BKN023 OVC032 M09/M13 A3007 RMK
                 AO2 SLP199 DRSN 4/006 P0000 60000 T10941128 11033 21094 410171094 50015 =
2019-01-19 23:45 METAR KMDW 200545Z 34014KT 5SM -SN BR FEW018 BKN023 OVC034 M09/M13 A3007 RMK AO2
                 DRSN P0000 T10941133 =
2019-01-19 23:35 METAR KMDW 200535Z 35013KT 2 1/2SM -SN BR FEW016 BKN025 OVC033 M09/M13 A3007 RMK
                 AO2 DRSN P0000 T10891128 =
2019-01-19 22:53 METAR KMDW 200453Z 34018G27KT 4SM -SN BR FEW017 BKN029 OVC036 M09/M13 A3008 RMK
                 AO2 PK WND 35027/0447 SLP201 DRSN P0000 T10891128 =
2019-01-19 21:53 METAR KMDW 200353Z 35021G28KT 3SM -SN BR FEW024 BKN029 OVC037 M08/M11 A3006 RMK
                 AO2 PK WND 34029/0310 SLP194 DRSN P0000 T10781111 =
2019-01-19 21:27 METAR KMDW 200327Z 35016G27KT 4SM -SN BR FEW017 BKN024 OVC035 M08/M11 A3004 RMK
                 AO2 PK WND 34029/0310 DRSN P0000 T10781106 =
2019-01-19 21:20 METAR KMDW 200320Z 35018G29KT 2SM -SN BR BKN019 BKN026 OVC035 M07/M10 A3003 RMK
                 AO2 PK WND 34029/0310 DRSN P0000 T10721100 =
2019-01-19 20:53 METAR KMDW 200253Z 34018G26KT 5SM -SN BR FEW017 BKN023 OVC034 M05/M08 A3002 RMK
                 AO2 PK WND 36033/0235 SLP182 DRSN P0000 60000 T10501083 53005 =
2019-01-19 20:16 METAR KMDW 200216Z 02016G29KT 3SM -SN BR BKN016 OVC024 M04/M07 A3001 RMK AO2 PK
                 WND 36029/0213 DRSN P0000 T10441072 =
2019-01-19 19:58 METAR KMDW 200158Z 02019G26KT 1SM R31C/4500VP6000FT -SN BR SCT018 OVC024 M04/M07
                 A3002 RMK AO2 PK WND 01026/0158 DRSN P0000 T10441067 =
2019-01-19 19:53 METAR KMDW 200153Z 01017G23KT 2 1/2SM -SN BR FEW018 OVC024 M04/M07 A3001 RMK AO2
                 PK WND 01031/0105 SLP178 DRSN P0000 T10391067 =
2019-01-19 18:53 METAR KMDW 200053Z 02021G28KT 10SM -SN OVC021 M04/M07 A3001 RMK AO2 PK WND
                 02032/0025 SLP178 DRSN P0000 T10391072 =
2019-01-19 17:53 METAR KMDW 192353Z 02016G28KT 10SM -SN OVC019 M04/M07 A3001 RMK AO2 PK WND
                 01033/2314 SLP176 DRSN 4/006 P0000 60000 T10391072 11028 21039 51021 =
2019-01-19 16:53 METAR KMDW 192253Z 02019G31KT 10SM -SN OVC019 M03/M07 A2999 RMK AO2 PK WND
                 01032/2154 SNB46 SLP171 DRSN P0000 T10331072 =
2019-01-19 15:53 METAR KMDW 192153Z 02020G29KT 10SM OVC017 M03/M07 A2998 RMK AO2 PK WND
                 02033/2123 SLP167 PRESENT WX DRSN T10331067 =
2019-01-19 15:43 METAR KMDW 192143Z 02020G32KT 10SM OVC017 M03/M07 A2998 RMK AO2 PK WND
                 02033/2123 PRESRR PRESENT WX DRSN T10331067 =
2019-01-19 14:53 METAR KMDW 192053Z 03023G33KT 10SM OVC012 M03/M06 A2995 RMK AO2 PK WND
                 02033/2034 SLP153 PRESENT WX DRSN 60000 T10331061 56023 =
2019-01-19 13:53 METAR KMDW 191953Z 03022G32KT 10SM OVC011 M03/M06 A2995 RMK AO2 PK WND
                 02032/1938 SLP156 PRESENT WX DRSN T10331056 =
2019-01-19 12:53 METAR KMDW 191853Z 03022G29KT 10SM OVC013 M03/M06 A2997 RMK AO2 PK WND
                 03029/1853 SNE50 SLP162 PRESENT WX DRSN P0000 T10331056 =
2019-01-19 12:11 METAR KMDW 191811Z 04019KT 6SM -SN BR OVC012 M03/M06 A3000 RMK AO2 PK WND
                 03028/1758 DRSN P0000 T10331056 =
2019-01-19 11:53 METAR KMDW 191753Z 03017KT 2SM -SN BR FEW010 BKN013 OVC021 M03/M06 A3001 RMK AO2
                 PK WND 06029/1707 SLP177 DRSN 4/006 P0000 60001 T10331056 11022 21033 58001 =
2019-01-19 11:42 METAR KMDW 191742Z 04014G24KT 2SM -SN BR FEW010 BKN013 OVC021 M03/M06 A3002 RMK
                 AO2 PK WND 06029/1707 DRSN P0000 T10281056 =
2019-01-19 11:13 METAR KMDW 191713Z 05019G29KT 1 1/2SM -SN BR FEW010 BKN015 OVC021 M03/M06 A3002
                 RMK AO2 PK WND 06029/1707 DRSN P0000 T10281056 =
2019-01-19 11:00 METAR KMDW 191700Z 05016G27KT 2 1/2SM -SN BR BKN015 OVC021 M03/M06 A3003 RMK AO2
                 PK WND 05027/1658 DRSN P0000 T10281056 =
2019-01-19 10:53 METAR KMDW 191653Z 06019G26KT 1 1/2SM -SN BR BKN015 OVC021 M03/M05 A3003 RMK AO2
                 PK WND 05028/1556 SLP181 DRSN P0000 T10281050 =
2019-01-19 09:53 METAR KMDW 191553Z 04016KT 1SM R31C/3500VP6000FT -SN BR FEW007 BKN012 OVC021
                 M03/M05 A3004 RMK AO2 PK WND 05029/1454 SLP184 DRSN P0000 T10331050 =
2019-01-19 08:53 METAR KMDW 191453Z 05021G28KT 1SM R31C/4000V5000FT -SN BR FEW007 BKN013 OVC019
                 M03/M05 A3002 RMK AO2 PK WND 05028/1452 SLP178 DRSN P0000 60001 T10331050 51001
                 =
2019-01-19 08:35 METAR KMDW 191435Z 04016G26KT 1SM R31C/4500VP6000FT -SN BR FEW007 BKN010 OVC017
                 M03/M04 A3002 RMK AO2 PK WND 05028/1424 DRSN P0000 T10331044 =
2019-01-19 07:53 METAR KMDW 191353Z 05017G28KT 3/4SM R31C/3500V4000FT -SN BR SCT007 OVC012
                 M03/M04 A3001 RMK AO2 PK WND 06030/1303 SLP176 DRSN P0001 T10331044 =
2019-01-19 07:02 METAR KMDW 191302Z 06018G27KT 3/4SM R31C/5500V6000FT -SN BR BKN009 OVC015
                 M03/M04 A3002 RMK AO2 PK WND 05027/1302 DRSN P0001 T10281039 =
2019-01-19 06:53 METAR KMDW 191253Z 06017KT 3/4SM R31C/6000VP6000FT -SN BR BKN011 OVC015 M03/M04
                 A3002 RMK AO2 PK WND 06029/1223 SLP180 DRSN P0000 T10281039 =
2019-01-19 06:30 METAR KMDW 191230Z 07019G29KT 3/4SM R31C/5000VP6000FT -SN BR VV010 M03/M04 A3002
                 RMK AO2 PK WND 06029/1223 DRSN P0000 T10281039 =
2019-01-19 05:53 METAR KMDW 191153Z 06015G24KT 3/4SM R31C/3500V5000FT -SN BR VV008 M02/M03 A3001
                 RMK AO2 SLP177 DRSN 4/004 P0001 60003 70003 T10221033 11017 21022 55014 =
2019-01-19 04:53 METAR KMDW 191053Z 07018G28KT 3/4SM R31C/4500V5500FT -SN BR OVC008 M02/M03 A3000
                 RMK AO2 PK WND 06028/1045 SLP172 DRSN SNINCR 1/4 P0001 T10221033 =
2019-01-19 04:23 METAR KMDW 191023Z 07017G25KT 3/4SM R31C/5000V6000FT -SN BR OVC009 M02/M03 A3000
                 RMK AO2 PK WND 07028/0956 DRSN P0000 T10221033 =
2019-01-19 03:53 METAR KMDW 190953Z 08017G26KT 3/4SM R31C/5500VP6000FT -SN BR OVC010 M02/M03
                 A3000 RMK AO2 PK WND 08031/0930 SLP171 DRSN P0000 T10221033 =
2019-01-19 03:40 METAR KMDW 190940Z 08013G27KT 1SM R31C/P6000FT -SN BR OVC010 M02/M03 A3000 RMK
                 AO2 PK WND 08031/0930 DRSN P0000 T10171033 =
2019-01-19 03:23 METAR KMDW 190923Z 08018G25KT 2SM -SN BR OVC010 M02/M03 A3002 RMK AO2 DRSN P0000
                 T10171033 =
2019-01-19 03:07 METAR KMDW 190907Z 08016G25KT 3SM -SN BR OVC010 M02/M03 A3004 RMK AO2 PRESFR
                 DRSN P0000 T10171033 =
2019-01-19 02:53 METAR KMDW 190853Z 09016G23KT 5SM -SN BR OVC009 M02/M03 A3006 RMK AO2 SLP191
                 DRSN P0000 60001 T10171033 56015 =
2019-01-19 01:53 METAR KMDW 190753Z 07012G22KT 5SM -SN BR OVC009 M02/M03 A3007 RMK AO2 SLP193
                 DRSN P0000 T10171033 =
2019-01-19 01:31 METAR KMDW 190731Z 08014G23KT 1 1/2SM -SN BR BKN009 OVC016 M02/M03 A3006 RMK AO2
                 DRSN P0000 T10171033 =
2019-01-19 01:05 METAR KMDW 190705Z 08015G22KT 3/4SM R31C/5000V5500FT -SN BR VV009 M02/M03 A3007
                 RMK AO2 DRSN P0000 T10171028 =

Support USWX by starting your Amazon purchase here.